Time;durP1;ratioP1;P1;durP2;ratioP2;P2;SDS_P1;SDS_P2;PMS_P1;PMS_P2;Temp;Humidity;BMP_temperature;BMP_pressure;BME280_temperature;BME280_humidity;BME280_pressure;Samples;Min_cycle;Max_cycle;Signal;HPM_P1;HPM_P2
2021/05/04 00:01:00;;;;;;;3.10;1.53;;;;;;;4.91;60.64;100320.69;5087368;28;20200;-72
2021/05/04 00:03:27;;;;;;;1.80;1.63;;;;;;;4.95;59.89;100318.72;5086173;28;20253;-72
2021/05/04 00:05:54;;;;;;;2.70;1.50;;;;;;;5.01;59.83;100318.38;5087937;28;20587;-72
2021/05/04 00:08:21;;;;;;;5.80;3.87;;;;;;;5.05;59.62;100317.28;5077238;28;20208;-72
2021/05/04 00:10:48;;;;;;;1.70;1.60;;;;;;;5.07;60.37;100322.53;5080858;28;20263;-72
2021/05/04 00:13:19;;;;;;;1.97;1.33;;;;;;;5.02;60.90;100309.47;5071286;28;20264;-72
2021/05/04 00:15:47;;;;;;;1.70;1.30;;;;;;;5.07;61.14;100319.88;5086944;28;20197;-72
2021/05/04 00:18:14;;;;;;;2.73;1.50;;;;;;;4.98;62.12;100315.91;5078751;28;20201;-72
2021/05/04 00:20:42;;;;;;;1.63;1.20;;;;;;;4.99;61.86;100315.81;5088466;28;20201;-72
2021/05/04 00:23:09;;;;;;;1.40;1.30;;;;;;;4.98;61.99;100318.56;5092346;28;20197;-73
2021/05/04 00:25:36;;;;;;;1.50;1.37;;;;;;;4.97;62.34;100312.38;5091280;28;20207;-72
2021/05/04 00:28:03;;;;;;;1.80;1.30;;;;;;;4.97;62.52;100314.19;5079739;28;20197;-72
2021/05/04 00:30:35;;;;;;;1.90;1.40;;;;;;;4.99;61.86;100305.16;5091181;28;20205;-73
2021/05/04 00:33:03;;;;;;;1.50;1.40;;;;;;;4.90;60.84;100283.50;5084887;28;20206;-73
2021/05/04 00:35:30;;;;;;;4.97;1.43;;;;;;;5.10;60.54;100312.59;5081922;28;20733;-73
2021/05/04 00:37:57;;;;;;;1.67;1.30;;;;;;;5.13;60.75;100304.44;5084319;28;20541;-73
2021/05/04 00:40:25;;;;;;;3.40;1.90;;;;;;;5.18;60.23;100306.84;5090395;28;20197;-73
2021/05/04 00:42:52;;;;;;;1.50;1.40;;;;;;;5.20;59.96;100296.97;5083656;28;20194;-72
2021/05/04 00:45:29;;;;;;;1.40;1.30;;;;;;;5.12;59.70;100281.44;5091304;28;20197;-72
2021/05/04 00:47:56;;;;;;;3.23;1.60;;;;;;;5.22;60.30;100282.69;5087223;28;20217;-72
2021/05/04 00:50:24;;;;;;;1.67;1.50;;;;;;;5.29;59.60;100294.72;5087691;28;20193;-72
2021/05/04 00:52:52;;;;;;;1.50;1.30;;;;;;;5.32;59.99;100298.16;5088816;28;20207;-72
2021/05/04 00:55:20;;;;;;;1.60;1.20;;;;;;;5.30;60.55;100301.75;5088195;28;20232;-73
2021/05/04 00:57:48;;;;;;;2.40;1.67;;;;;;;5.27;62.10;100296.59;5091194;28;20197;-73
2021/05/04 01:00:16;;;;;;;2.53;1.40;;;;;;;5.26;62.34;100294.03;5088901;28;20255;-73
2021/05/04 01:02:44;;;;;;;1.10;1.10;;;;;;;5.24;62.13;100295.91;5083460;28;20212;-72
2021/05/04 01:05:12;;;;;;;4.57;1.40;;;;;;;5.24;62.01;100291.44;5080220;28;20210;-72
2021/05/04 01:07:40;;;;;;;1.70;1.30;;;;;;;5.24;62.05;100275.47;5074975;28;20194;-72
2021/05/04 01:10:08;;;;;;;3.00;1.50;;;;;;;5.29;61.13;100293.84;5071157;28;20991;-72
2021/05/04 01:12:35;;;;;;;1.60;1.50;;;;;;;5.33;61.08;100291.88;5075344;28;20206;-72
2021/05/04 01:15:03;;;;;;;1.40;1.30;;;;;;;5.22;61.06;100260.53;5077219;28;20227;-72
2021/05/04 01:17:30;;;;;;;1.50;1.23;;;;;;;5.32;62.03;100288.38;5079040;28;20203;-72
2021/05/04 01:19:58;;;;;;;1.50;1.40;;;;;;;5.32;61.70;100284.84;5073554;28;20202;-73
2021/05/04 01:22:26;;;;;;;1.60;1.33;;;;;;;5.33;61.49;100287.41;5084396;28;20211;-73
2021/05/04 01:24:53;;;;;;;1.70;1.30;;;;;;;5.33;61.29;100279.44;5091074;28;20206;-72
2021/05/04 01:27:20;;;;;;;1.50;1.40;;;;;;;4.78;61.58;100181.25;5088901;28;20202;-72
2021/05/04 01:29:47;;;;;;;4.33;1.23;;;;;;;5.35;62.03;100279.34;5076445;28;20654;-73
2021/05/04 01:32:16;;;;;;;1.43;1.10;;;;;;;5.35;61.93;100276.69;5080870;28;22029;-73
2021/05/04 01:34:43;;;;;;;1.40;1.30;;;;;;;5.34;62.40;100277.63;5075775;28;20752;-72
2021/05/04 01:37:10;;;;;;;1.27;1.10;;;;;;;5.13;61.91;100240.56;5083058;28;20204;-72
2021/05/04 01:39:44;;;;;;;3.27;1.17;;;;;;;5.36;61.63;100273.09;5083299;28;20202;-72
2021/05/04 01:42:13;;;;;;;2.07;1.40;;;;;;;5.41;61.21;100273.69;5084235;28;20220;-73
2021/05/04 01:44:40;;;;;;;1.90;1.57;;;;;;;5.42;60.90;100276.25;5083685;28;20197;-72
2021/05/04 01:47:07;;;;;;;1.43;1.13;;;;;;;5.45;60.76;100277.91;5085970;28;20193;-72
2021/05/04 01:49:36;;;;;;;1.50;1.33;;;;;;;5.44;61.08;100271.72;5086740;28;20205;-72
2021/05/04 01:52:06;;;;;;;2.50;1.63;;;;;;;5.45;60.88;100269.91;5084598;28;20754;-72
2021/05/04 01:54:33;;;;;;;1.83;1.40;;;;;;;5.43;61.30;100264.66;5084352;28;20773;-72
2021/05/04 01:57:01;;;;;;;3.00;1.33;;;;;;;5.43;60.93;100266.47;5081409;28;20212;-72
2021/05/04 01:59:29;;;;;;;1.73;1.20;;;;;;;5.42;61.38;100267.41;5089098;28;20200;-72
2021/05/04 02:01:57;;;;;;;94.50;31.37;;;;;;;5.42;61.85;100264.75;5079068;28;20626;-72
2021/05/04 02:04:24;;;;;;;8.30;4.70;;;;;;;5.44;61.26;100269.06;5086586;28;20696;-72
2021/05/04 02:06:52;;;;;;;3.07;2.23;;;;;;;5.41;61.23;100260.38;5088560;28;20197;-72
2021/05/04 02:09:19;;;;;;;5.57;3.00;;;;;;;5.45;64.05;100268.09;5073891;28;20692;-72
2021/05/04 02:11:46;;;;;;;5.17;2.87;;;;;;;5.47;65.69;100270.69;5083927;28;20197;-73
2021/05/04 02:14:14;;;;;;;4.63;2.37;;;;;;;5.49;66.56;100264.34;5073175;28;20221;-72
2021/05/04 02:16:41;;;;;;;1.90;1.70;;;;;;;5.50;66.31;100260.72;5085328;28;20318;-72
2021/05/04 02:19:09;;;;;;;1.87;1.57;;;;;;;5.48;65.56;100265.28;5082984;28;20198;-72
2021/05/04 02:21:36;;;;;;;2.23;1.40;;;;;;;5.51;64.84;100256.25;5070370;28;20759;-72
2021/05/04 02:24:04;;;;;;;1.63;1.20;;;;;;;5.49;63.75;100253.69;5088932;28;20643;-72
2021/05/04 02:26:31;;;;;;;1.60;1.50;;;;;;;5.48;64.10;100256.44;5080319;28;20209;-73
2021/05/04 02:28:58;;;;;;;1.47;1.33;;;;;;;5.38;63.64;100231.25;5077329;28;20207;-73
2021/05/04 02:31:26;;;;;;;1.90;1.50;;;;;;;5.44;62.95;100242.44;5080263;28;20669;-73
2021/05/04 02:33:53;;;;;;;2.80;1.30;;;;;;;5.29;62.80;100228.16;5074270;28;20304;-73
2021/05/04 02:36:20;;;;;;;1.73;1.40;;;;;;;5.38;62.53;100231.25;5068364;28;20233;-73
2021/05/04 02:38:47;;;;;;;3.63;1.50;;;;;;;5.43;61.73;100243.38;5075484;28;20565;-73
2021/05/04 02:41:14;;;;;;;4.27;1.60;;;;;;;5.25;61.82;100217.78;5083701;28;20197;-72
2021/05/04 02:43:42;;;;;;;2.13;1.57;;;;;;;5.38;61.28;100237.44;5086353;28;20277;-72
2021/05/04 02:46:09;;;;;;;2.30;1.60;;;;;;;5.34;61.28;100235.03;5070052;28;20259;-72
2021/05/04 02:48:39;;;;;;;4.17;1.40;;;;;;;5.29;61.36;100230.81;5069923;28;20209;-72
2021/05/04 02:51:08;;;;;;;2.93;1.33;;;;;;;5.08;60.90;100193.84;5074841;28;20209;-72
2021/05/04 02:53:37;;;;;;;1.50;1.40;;;;;;;5.27;61.63;100243.34;5068756;28;20186;-72
2021/05/04 02:56:05;;;;;;;1.97;1.40;;;;;;;4.96;61.90;100196.25;5077950;28;20193;-72
2021/05/04 02:58:33;;;;;;;2.73;1.57;;;;;;;5.16;61.79;100231.56;5076540;28;20201;-72
2021/05/04 03:01:01;;;;;;;2.10;1.40;;;;;;;5.09;61.82;100228.38;5079335;28;20209;-72
2021/05/04 03:03:28;;;;;;;1.70;1.57;;;;;;;5.04;61.74;100227.75;5079910;28;20221;-72
2021/05/04 03:05:56;;;;;;;1.83;1.53;;;;;;;5.01;62.10;100222.59;5077876;28;20197;-72
2021/05/04 03:08:27;;;;;;;1.90;1.50;;;;;;;4.97;61.38;100229.91;5077588;28;20223;-73
2021/05/04 03:10:54;;;;;;;2.17;1.50;;;;;;;4.93;61.73;100222.16;5073760;28;20275;-72
2021/05/04 03:13:24;;;;;;;2.93;1.70;;;;;;;4.87;61.15;100215.34;5084977;28;20212;-72
2021/05/04 03:15:52;;;;;;;1.50;1.40;;;;;;;4.88;61.35;100218.84;5088353;28;20226;-72
2021/05/04 03:18:20;;;;;;;1.40;1.30;;;;;;;4.87;60.71;100214.47;5079026;28;20207;-72
2021/05/04 03:20:48;;;;;;;11.70;2.03;;;;;;;4.62;60.65;100181.22;5075029;28;20663;-72
2021/05/04 03:23:18;;;;;;;2.67;1.70;;;;;;;4.55;60.82;100174.47;5078237;28;20555;-72
2021/05/04 03:25:45;;;;;;;3.67;1.70;;;;;;;4.74;60.32;100213.41;5070033;28;20193;-72
2021/05/04 03:28:13;;;;;;;2.40;1.67;;;;;;;4.72;60.28;100209.97;5075946;28;20201;-72
2021/05/04 03:30:40;;;;;;;6.83;1.77;;;;;;;4.61;61.19;100192.78;5086502;28;20196;-72
2021/05/04 03:33:08;;;;;;;2.03;1.70;;;;;;;4.63;60.87;100203.34;5078636;28;20205;-72
2021/05/04 03:35:35;;;;;;;2.83;1.70;;;;;;;4.57;61.34;100204.50;5076564;28;20217;-72
2021/05/04 03:38:03;;;;;;;1.97;1.50;;;;;;;4.53;61.42;100202.94;5074461;28;20215;-72
2021/05/04 03:40:31;;;;;;;2.20;1.63;;;;;;;4.52;61.32;100200.38;5080865;28;20680;-72
2021/05/04 03:43:00;;;;;;;2.20;1.40;;;;;;;4.49;61.05;100201.38;5074902;28;20276;-72
2021/05/04 03:45:27;;;;;;;1.70;1.43;;;;;;;4.48;61.47;100205.00;5075098;28;20595;-72
2021/05/04 03:47:54;;;;;;;3.37;1.67;;;;;;;4.36;61.28;100181.72;5079865;28;20200;-72
2021/05/04 03:50:24;;;;;;;2.30;1.57;;;;;;;4.42;61.33;100189.38;5085198;28;20640;-72
2021/05/04 03:52:52;;;;;;;5.90;1.57;;;;;;;4.40;61.79;100196.56;5083825;28;20196;-72
2021/05/04 03:55:19;;;;;;;3.97;1.50;;;;;;;4.15;61.32;100164.19;5085587;28;20228;-73
2021/05/04 03:57:48;;;;;;;1.80;1.57;;;;;;;4.40;61.72;100190.38;5076273;28;20201;-72
2021/05/04 04:00:17;;;;;;;1.97;1.30;;;;;;;4.41;61.53;100195.63;5078782;28;20210;-72
2021/05/04 04:02:44;;;;;;;2.33;1.63;;;;;;;4.43;60.80;100191.06;5075920;28;20288;-72
2021/05/04 04:05:12;;;;;;;2.30;1.53;;;;;;;4.19;60.80;100142.69;5072774;28;20190;-72
2021/05/04 04:07:39;;;;;;;2.63;2.00;;;;;;;4.52;61.17;100187.94;5081005;28;20193;-72
2021/05/04 04:10:09;;;;;;;2.83;1.47;;;;;;;4.50;61.30;100176.53;5075172;28;20221;-72
2021/05/04 04:12:36;;;;;;;2.87;1.60;;;;;;;4.57;61.08;100179.72;5080597;28;20203;-72
2021/05/04 04:15:08;;;;;;;1.87;1.60;;;;;;;4.63;61.18;100185.59;5086514;28;20226;-72
2021/05/04 04:17:35;;;;;;;1.97;1.67;;;;;;;4.64;62.15;100179.34;5069944;28;20195;-72
2021/05/04 04:20:03;;;;;;;3.13;2.00;;;;;;;4.70;62.76;100177.28;5070189;28;20559;-74
2021/05/04 04:22:30;;;;;;;33.40;12.43;;;;;;;4.89;62.33;100175.34;5071559;28;20197;-73
2021/05/04 04:24:57;;;;;;;2.20;1.67;;;;;;;5.04;62.37;100171.88;5075308;28;20194;-73
2021/05/04 04:27:24;;;;;;;2.43;1.93;;;;;;;5.20;64.17;100175.44;5073047;28;20228;-73
2021/05/04 04:29:51;;;;;;;6.60;2.50;;;;;;;5.39;63.43;100167.28;5068887;28;20232;-73
2021/05/04 04:32:19;;;;;;;7.63;3.20;;;;;;;5.63;62.87;100165.03;5070285;28;20190;-73
2021/05/04 04:34:49;;;;;;;4.40;2.83;;;;;;;5.81;63.52;100161.31;5076794;28;20206;-72
2021/05/04 04:37:16;;;;;;;7.70;2.90;;;;;;;6.04;63.79;100160.00;5074100;28;20203;-73
2021/05/04 04:39:44;;;;;;;5.57;3.13;;;;;;;6.25;64.57;100157.91;5078607;28;20674;-72
2021/05/04 04:42:11;;;;;;;4.83;3.20;;;;;;;6.39;64.91;100149.94;5076287;28;20188;-73
2021/05/04 04:44:38;;;;;;;11.23;3.50;;;;;;;6.55;66.20;100149.88;5079357;28;20210;-73
2021/05/04 04:47:06;;;;;;;5.93;3.53;;;;;;;6.46;67.46;100127.28;5073503;28;20210;-73
2021/05/04 04:49:35;;;;;;;8.83;3.27;;;;;;;6.61;69.28;100148.63;5074691;28;20215;-72
2021/05/04 04:52:02;;;;;;;11.53;2.70;;;;;;;6.69;69.90;100146.34;5076506;28;20592;-73
2021/05/04 04:54:31;;;;;;;5.43;3.03;;;;;;;6.85;69.04;100144.47;5081383;28;20220;-73
2021/05/04 04:56:58;;;;;;;5.80;2.67;;;;;;;7.00;69.76;100139.97;5074446;28;20200;-72
2021/05/04 04:59:25;;;;;;;4.67;2.40;;;;;;;7.14;69.73;100142.63;5108086;27;20303;-73
2021/05/04 05:01:52;;;;;;;3.30;2.10;;;;;;;7.28;70.00;100133.72;5080356;28;20195;-73
2021/05/04 05:04:20;;;;;;;4.67;2.33;;;;;;;7.26;70.49;100122.28;5078108;28;20203;-73
2021/05/04 05:06:48;;;;;;;3.00;1.80;;;;;;;7.33;70.74;100115.59;5081856;28;20252;-73
2021/05/04 05:09:15;;;;;;;4.47;2.63;;;;;;;7.44;69.78;100119.31;5079111;28;20235;-73
2021/05/04 05:11:42;;;;;;;3.37;2.20;;;;;;;7.67;69.95;100131.19;5083587;28;20258;-73
2021/05/04 05:14:09;;;;;;;3.50;2.40;;;;;;;7.86;70.72;100114.75;5075650;28;20204;-73
2021/05/04 05:16:37;;;;;;;2.67;2.17;;;;;;;8.00;71.94;100124.53;5078445;28;20213;-73
2021/05/04 05:19:05;;;;;;;5.63;2.20;;;;;;;8.19;72.32;100122.31;5083801;28;20212;-74
2021/05/04 05:21:37;;;;;;;2.60;1.80;;;;;;;8.38;73.38;100125.50;5082605;28;20648;-72
2021/05/04 05:24:08;;;;;;;5.00;2.37;;;;;;;8.49;72.26;100118.53;5108498;27;20208;-73
2021/05/04 05:26:36;;;;;;;4.40;2.10;;;;;;;8.39;72.41;100108.47;5078680;28;20685;-73
2021/05/04 05:29:05;;;;;;;2.23;1.77;;;;;;;8.46;72.03;100092.00;5077527;28;20223;-72
2021/05/04 05:31:34;;;;;;;2.80;1.87;;;;;;;8.78;71.43;100112.00;5080075;28;20197;-73
2021/05/04 05:34:02;;;;;;;2.57;1.87;;;;;;;8.34;71.65;100059.78;5076208;28;20561;-74
2021/05/04 05:36:29;;;;;;;4.20;2.10;;;;;;;8.88;71.26;100105.06;5078863;28;20234;-73
2021/05/04 05:38:56;;;;;;;3.77;2.00;;;;;;;9.10;69.61;100108.84;5080413;28;20584;-73
2021/05/04 05:41:24;;;;;;;2.57;1.80;;;;;;;9.11;69.77;100110.56;5078838;28;20619;-73
2021/05/04 05:43:52;;;;;;;3.17;2.10;;;;;;;9.27;68.74;100100.47;5078010;28;20204;-72
2021/05/04 05:46:19;;;;;;;2.67;1.90;;;;;;;9.57;67.70;100108.94;5083420;28;20558;-72
2021/05/04 05:48:46;;;;;;;1.87;1.77;;;;;;;9.80;67.63;100104.56;5080785;28;20438;-73
2021/05/04 05:51:13;;;;;;;6.23;2.07;;;;;;;9.63;67.73;100116.53;5085052;28;20200;-73
2021/05/04 05:53:40;;;;;;;2.43;1.83;;;;;;;9.45;68.33;100101.78;5077377;28;20202;-74
2021/05/04 05:56:08;;;;;;;3.23;2.10;;;;;;;9.45;68.68;100104.47;5078738;28;20207;-73
2021/05/04 05:58:36;;;;;;;8.30;2.40;;;;;;;9.39;69.25;100104.94;5085893;28;20200;-73
2021/05/04 06:01:03;;;;;;;2.30;2.07;;;;;;;9.19;69.14;100060.84;5084531;28;20680;-73
2021/05/04 06:03:30;;;;;;;3.00;2.10;;;;;;;9.61;68.94;100098.84;5078175;28;20608;-74
2021/05/04 06:05:58;;;;;;;2.97;1.97;;;;;;;9.75;68.93;100095.97;5084356;28;20685;-73
2021/05/04 06:08:25;;;;;;;3.33;2.03;;;;;;;9.90;68.88;100092.16;5084251;28;20254;-73
2021/05/04 06:10:52;;;;;;;3.00;2.00;;;;;;;10.09;67.58;100086.22;5077327;28;20208;-73
2021/05/04 06:13:20;;;;;;;4.70;2.17;;;;;;;10.18;67.20;100082.88;5082880;28;20189;-73
2021/05/04 06:15:49;;;;;;;2.53;2.03;;;;;;;10.56;64.65;100076.38;5081783;28;20221;-72
2021/05/04 06:18:17;;;;;;;2.40;1.73;;;;;;;10.70;64.23;100078.81;5082096;28;20211;-72
2021/05/04 06:20:44;;;;;;;3.00;2.00;;;;;;;10.78;63.43;100071.03;5084167;28;20489;-74
2021/05/04 06:23:11;;;;;;;1.63;1.53;;;;;;;10.96;63.81;100068.69;5086646;28;20679;-74
2021/05/04 06:25:38;;;;;;;1.93;1.70;;;;;;;11.19;62.57;100070.38;5080249;28;20195;-74
2021/05/04 06:28:07;;;;;;;2.23;1.70;;;;;;;11.48;59.07;100059.94;5069646;28;20197;-72
2021/05/04 06:30:36;;;;;;;2.87;1.67;;;;;;;11.66;59.94;100056.72;5075893;28;20193;-72
2021/05/04 06:33:06;;;;;;;3.70;1.43;;;;;;;11.89;58.95;100057.50;5068909;28;20208;-73
2021/05/04 06:35:35;;;;;;;4.10;1.30;;;;;;;11.92;55.71;100036.56;5080449;28;20223;-70
2021/05/04 06:38:04;;;;;;;1.40;1.30;;;;;;;11.87;56.17;100048.69;5084482;28;20217;-70
2021/05/04 06:40:31;;;;;;;2.93;1.07;;;;;;;11.89;52.61;100050.28;5075109;28;20229;-72
2021/05/04 06:42:58;;;;;;;2.40;0.97;;;;;;;11.82;52.98;100051.78;5077291;28;20227;-72
2021/05/04 06:45:26;;;;;;;2.67;1.17;;;;;;;11.92;52.85;100038.38;5072097;28;20232;-72
2021/05/04 06:47:53;;;;;;;1.57;1.10;;;;;;;11.87;52.46;100032.56;5078955;28;20200;-72
2021/05/04 06:50:21;;;;;;;1.57;1.00;;;;;;;11.60;51.06;100017.72;5077288;28;20199;-72
2021/05/04 06:52:48;;;;;;;1.90;0.80;;;;;;;12.01;50.62;100035.78;5080827;28;20209;-72
2021/05/04 06:55:15;;;;;;;1.23;0.87;;;;;;;12.11;51.47;100027.78;5072695;28;20596;-72
2021/05/04 06:57:42;;;;;;;11.70;1.00;;;;;;;12.41;49.78;100043.97;5085664;28;20198;-72
2021/05/04 07:00:10;;;;;;;2.30;0.53;;;;;;;12.37;48.42;100029.06;5067866;28;20215;-72
2021/05/04 07:02:38;;;;;;;1.03;0.83;;;;;;;12.31;48.40;100036.84;5080787;28;20664;-72
2021/05/04 07:05:06;;;;;;;0.60;0.60;;;;;;;12.47;47.80;100039.03;5086064;28;20226;-72
2021/05/04 07:07:34;;;;;;;0.60;0.50;;;;;;;12.44;47.35;100032.94;5076592;28;20661;-70
2021/05/04 07:10:03;;;;;;;0.70;0.70;;;;;;;12.35;46.51;100033.75;5072479;28;20285;-71
2021/05/04 07:12:30;;;;;;;0.90;0.80;;;;;;;12.25;46.65;100037.38;5081861;28;20208;-71
2021/05/04 07:14:58;;;;;;;0.83;0.60;;;;;;;11.98;47.88;100030.69;5079146;28;20205;-71
2021/05/04 07:17:26;;;;;;;3.63;0.80;;;;;;;11.85;48.29;100039.91;5082388;28;20687;-71
2021/05/04 07:19:55;;;;;;;2.77;0.80;;;;;;;11.72;49.46;100026.59;5076898;28;20194;-72
2021/05/04 07:22:25;;;;;;;1.57;1.00;;;;;;;11.40;51.31;100008.66;5086189;28;20192;-71
2021/05/04 07:24:53;;;;;;;1.30;1.00;;;;;;;11.25;52.62;100028.72;5087418;28;20186;-71
2021/05/04 07:27:21;;;;;;;1.07;0.97;;;;;;;11.12;53.79;100033.41;5078331;28;20193;-71
2021/05/04 07:29:50;;;;;;;1.10;1.00;;;;;;;11.05;53.96;100029.50;5086718;28;20204;-71
2021/05/04 07:32:18;;;;;;;2.10;1.10;;;;;;;11.14;54.53;100026.06;5085595;28;20192;-72
2021/05/04 07:34:49;;;;;;;1.27;0.97;;;;;;;11.18;54.13;100024.81;5083299;28;20522;-71
2021/05/04 07:37:16;;;;;;;1.40;1.00;;;;;;;11.07;53.56;100027.53;5082394;28;20202;-71
2021/05/04 07:39:44;;;;;;;2.07;1.30;;;;;;;11.20;54.20;100018.34;5082796;28;20675;-71
2021/05/04 07:42:12;;;;;;;1.20;0.90;;;;;;;11.25;52.00;100014.41;5071868;28;20193;-71
2021/05/04 07:44:41;;;;;;;0.87;0.63;;;;;;;11.35;52.05;100016.25;5081073;28;20205;-71
2021/05/04 07:47:08;;;;;;;1.03;0.60;;;;;;;11.40;50.54;100010.47;5082368;28;20596;-71
2021/05/04 07:49:43;;;;;;;0.80;0.80;;;;;;;11.50;50.38;100014.94;5082371;28;20191;-71
2021/05/04 07:52:11;;;;;;;0.93;0.53;;;;;;;11.52;50.23;100017.50;5081083;28;20669;-71
2021/05/04 07:54:39;;;;;;;0.50;0.50;;;;;;;11.62;49.38;100005.00;5082072;28;20280;-71
2021/05/04 07:57:07;;;;;;;6.20;1.10;;;;;;;11.65;48.44;99999.38;5076925;28;20201;-71
2021/05/04 07:59:35;;;;;;;0.63;0.63;;;;;;;11.76;47.95;100002.00;5082177;28;20677;-71
2021/05/04 08:02:03;;;;;;;1.17;0.80;;;;;;;11.89;49.10;100001.00;5083893;28;20222;-70
2021/05/04 08:04:31;;;;;;;0.70;0.70;;;;;;;11.74;49.31;99978.91;5081785;28;20213;-71
2021/05/04 08:07:01;;;;;;;0.93;0.93;;;;;;;11.75;49.15;99994.06;5081443;28;20203;-71
2021/05/04 08:09:28;;;;;;;2.20;0.80;;;;;;;11.79;50.62;99987.47;5079156;28;20515;-71
2021/05/04 08:11:55;;;;;;;1.93;0.87;;;;;;;11.88;50.26;99992.06;5079417;28;20561;-71
2021/05/04 08:14:23;;;;;;;2.60;0.90;;;;;;;11.70;49.85;99999.00;5081828;28;20272;-71
2021/05/04 08:16:52;;;;;;;0.83;0.83;;;;;;;11.58;50.13;99987.41;5073412;28;20402;-72
2021/05/04 08:19:20;;;;;;;4.07;0.87;;;;;;;11.23;50.99;99990.34;5085626;28;20205;-71
2021/05/04 08:21:47;;;;;;;2.73;0.93;;;;;;;11.11;51.64;99969.88;5078881;28;20195;-72
2021/05/04 08:24:14;;;;;;;1.23;0.80;;;;;;;11.30;52.30;99980.78;5081663;28;20199;-73
2021/05/04 08:26:41;;;;;;;1.27;0.80;;;;;;;11.01;51.02;99961.69;5076293;28;20279;-73
2021/05/04 08:29:10;;;;;;;1.33;0.73;;;;;;;11.34;53.08;99978.72;5082331;28;20539;-70
2021/05/04 08:31:37;;;;;;;3.50;1.00;;;;;;;11.11;52.19;99954.63;5070702;28;20211;-71
2021/05/04 08:34:10;;;;;;;1.20;1.10;;;;;;;11.10;51.66;99947.53;5079982;28;20224;-70
2021/05/04 08:36:37;;;;;;;0.80;0.70;;;;;;;11.26;51.78;99968.59;5081588;28;20310;-71
2021/05/04 08:39:05;;;;;;;1.50;0.97;;;;;;;10.94;53.22;99938.16;5080499;28;20203;-70
2021/05/04 08:41:34;;;;;;;1.50;0.83;;;;;;;11.16;53.40;99978.41;5081465;28;20204;-71
2021/05/04 08:44:02;;;;;;;1.80;0.93;;;;;;;11.16;53.01;99970.34;5083402;28;20228;-71
2021/05/04 08:46:34;;;;;;;0.90;0.90;;;;;;;11.05;54.69;99959.66;5085023;28;20647;-71
2021/05/04 08:49:03;;;;;;;1.23;1.00;;;;;;;11.12;54.83;99979.66;5071552;28;20205;-71
2021/05/04 08:51:32;;;;;;;2.93;0.80;;;;;;;11.00;54.07;99968.06;5087461;28;20292;-71
2021/05/04 08:54:02;;;;;;;1.57;0.90;;;;;;;11.06;55.35;99964.03;5086933;28;20232;-71
2021/05/04 08:56:29;;;;;;;3.17;1.20;;;;;;;10.88;55.41;99969.94;5072472;28;20580;-71
2021/05/04 08:58:56;;;;;;;0.70;0.70;;;;;;;10.84;55.73;99963.09;5086556;28;20280;-72
2021/05/04 09:01:24;;;;;;;1.37;0.87;;;;;;;10.77;55.37;99969.09;5078325;28;20189;-71
2021/05/04 09:03:53;;;;;;;0.93;0.80;;;;;;;10.68;56.82;99957.25;5074044;28;20204;-70
2021/05/04 09:06:30;;;;;;;1.87;1.10;;;;;;;10.58;57.35;99975.94;5087085;28;20193;-71
2021/05/04 09:09:13;;;;;;;1.13;1.03;;;;;;;10.04;57.35;99924.78;5075396;28;20240;-71
2021/05/04 09:12:03;;;;;;;1.10;1.00;;;;;;;10.27;58.52;99958.75;5077949;28;20197;-70
2021/05/04 09:14:38;;;;;;;1.17;1.07;;;;;;;10.13;58.41;99956.28;5075410;28;20214;-71
2021/05/04 09:17:12;;;;;;;2.03;1.20;;;;;;;9.93;58.54;99948.94;5081096;28;20223;-71
2021/05/04 09:19:56;;;;;;;0.90;0.90;;;;;;;10.00;59.58;99934.06;5070635;28;20196;-71
2021/05/04 09:22:34;;;;;;;1.33;1.23;;;;;;;9.55;59.50;99874.16;5072429;28;20185;-71
2021/05/04 09:25:03;;;;;;;1.40;1.30;;;;;;;9.97;59.36;99945.03;5077246;28;20208;-70
2021/05/04 09:27:30;;;;;;;2.93;1.70;;;;;;;10.08;59.19;99942.34;5077845;28;20205;-70
2021/05/04 09:29:59;;;;;;;3.63;0.93;;;;;;;10.03;60.24;99944.53;5075684;28;20682;-71
2021/05/04 09:32:46;;;;;;;1.90;1.30;;;;;;;9.92;59.66;99939.16;5084074;28;20268;-71
2021/05/04 09:35:14;;;;;;;2.27;1.20;;;;;;;10.02;59.51;99932.09;5086331;28;20660;-71
2021/05/04 09:37:43;;;;;;;1.10;1.00;;;;;;;9.70;59.82;99898.91;5079623;28;20568;-69
2021/05/04 09:40:21;;;;;;;0.90;0.90;;;;;;;9.95;60.26;99931.75;5076074;28;20201;-69
2021/05/04 09:43:03;;;;;;;1.83;1.10;;;;;;;10.09;60.09;99930.63;5080473;28;20222;-69
2021/05/04 09:45:31;;;;;;;2.00;1.03;;;;;;;10.20;59.83;99916.41;5087876;28;20196;-69
2021/05/04 09:48:11;;;;;;;2.40;1.40;;;;;;;10.25;59.57;99916.91;5078213;28;20725;-69
2021/05/04 09:51:02;;;;;;;1.10;1.00;;;;;;;10.20;59.91;99909.22;5080423;28;20617;-68
2021/05/04 09:53:41;;;;;;;1.20;1.10;;;;;;;10.20;59.13;99909.22;5075928;28;20256;-68
2021/05/04 09:56:11;;;;;;;4.23;1.50;;;;;;;10.07;60.24;99903.09;5082381;28;20219;-69
2021/05/04 09:58:41;;;;;;;1.67;1.20;;;;;;;10.14;60.12;99901.66;5082447;28;20671;-69
2021/05/04 10:01:10;;;;;;;2.10;1.30;;;;;;;10.35;60.96;99901.75;5084583;28;20287;-69
2021/05/04 10:03:38;;;;;;;1.40;1.30;;;;;;;10.18;60.88;99905.78;5086346;28;20196;-68
2021/05/04 10:06:07;;;;;;;1.43;1.30;;;;;;;10.22;62.01;99899.22;5077937;28;20661;-69
2021/05/04 10:08:35;;;;;;;1.60;1.50;;;;;;;10.24;62.03;99891.91;5080333;28;20197;-69
2021/05/04 10:11:04;;;;;;;1.53;1.33;;;;;;;9.83;62.40;99829.97;5081196;28;20207;-69
2021/05/04 10:13:33;;;;;;;1.37;1.27;;;;;;;10.10;62.45;99892.13;5085643;28;20721;-69
2021/05/04 10:16:02;;;;;;;1.90;1.47;;;;;;;9.84;62.15;99906.75;5079377;28;20227;-69
2021/05/04 10:18:30;;;;;;;2.30;1.50;;;;;;;9.72;63.20;99875.50;5080361;28;20199;-69
2021/05/04 10:20:59;;;;;;;2.30;1.60;;;;;;;9.94;63.67;99895.16;5069215;28;20199;-69
2021/05/04 10:23:28;;;;;;;2.70;1.60;;;;;;;9.98;63.29;99898.47;5080809;28;20580;-68
2021/05/04 10:25:59;;;;;;;2.30;1.50;;;;;;;9.98;62.91;99900.28;5086017;28;20274;-69
2021/05/04 10:28:30;;;;;;;1.73;1.50;;;;;;;9.88;62.84;99892.13;5076099;28;20217;-68
2021/05/04 10:31:02;;;;;;;5.33;1.87;;;;;;;9.81;62.53;99885.53;5079676;28;20200;-68
2021/05/04 10:33:32;;;;;;;1.40;1.30;;;;;;;9.81;62.87;99880.16;5085263;28;20224;-68
2021/05/04 10:36:01;;;;;;;4.07;1.60;;;;;;;9.79;64.15;99871.38;5081260;28;20219;-69
2021/05/04 10:38:53;;;;;;;1.73;1.47;;;;;;;9.68;64.41;99868.69;5074802;28;20197;-69
2021/05/04 10:41:21;;;;;;;1.57;1.40;;;;;;;9.79;63.77;99874.91;5084786;28;20666;-68
2021/05/04 10:44:00;;;;;;;1.90;1.60;;;;;;;9.85;63.08;99876.28;5072841;28;20289;-68
2021/05/04 10:46:37;;;;;;;1.77;1.17;;;;;;;9.85;63.44;99873.59;5088596;28;20192;-68
2021/05/04 10:49:06;;;;;;;2.20;1.60;;;;;;;9.63;63.25;99815.44;5076800;28;20279;-68
2021/05/04 10:51:48;;;;;;;2.73;1.30;;;;;;;9.89;61.33;99865.19;5084726;28;20192;-68
2021/05/04 10:54:17;;;;;;;2.43;1.63;;;;;;;9.91;60.74;99854.31;5082375;28;20222;-69
2021/05/04 10:56:46;;;;;;;3.30;1.23;;;;;;;10.04;61.75;99860.41;5085693;28;20230;-69
2021/05/04 10:59:36;;;;;;;3.27;1.40;;;;;;;10.15;61.90;99851.53;5086618;28;20211;-69
2021/05/04 11:02:28;;;;;;;3.03;1.53;;;;;;;9.91;61.54;99848.97;5082807;28;20245;-68
2021/05/04 11:04:57;;;;;;;1.30;1.20;;;;;;;10.00;61.60;99842.84;5087047;28;20621;-69
2021/05/04 11:07:53;;;;;;;1.60;1.27;;;;;;;9.96;60.70;99839.56;5086904;28;20192;-69
2021/05/04 11:10:20;;;;;;;1.90;1.00;;;;;;;9.85;60.16;99828.84;5081869;28;20334;-69
2021/05/04 11:12:48;;;;;;;0.70;0.70;;;;;;;9.92;59.40;99823.84;5087280;28;20707;-69
2021/05/04 11:15:23;;;;;;;1.63;1.10;;;;;;;10.10;60.39;99822.38;5083833;28;20569;-69
2021/05/04 11:17:51;;;;;;;2.03;1.10;;;;;;;10.13;58.79;99838.22;5082176;28;20215;-70
2021/05/04 11:20:32;;;;;;;2.10;1.13;;;;;;;10.19;58.95;99815.41;5083510;28;20636;-71
2021/05/04 11:23:00;;;;;;;2.83;0.90;;;;;;;10.06;57.73;99826.28;5072490;28;20214;-69
2021/05/04 11:25:36;;;;;;;0.80;0.80;;;;;;;9.88;57.29;99811.66;5086841;28;20204;-70
2021/05/04 11:28:04;;;;;;;2.43;0.70;;;;;;;9.96;58.36;99811.91;5086328;28;20202;-69
2021/05/04 11:30:38;;;;;;;0.93;0.93;;;;;;;9.80;58.47;99792.66;5086832;28;20218;-69
2021/05/04 11:33:29;;;;;;;2.03;0.93;;;;;;;9.84;57.83;99812.91;5087544;28;20192;-70
2021/05/04 11:35:58;;;;;;;2.60;1.10;;;;;;;9.95;58.53;99796.78;5074095;28;20239;-69
2021/05/04 11:38:26;;;;;;;1.93;1.10;;;;;;;9.87;58.20;99789.38;5083168;28;20290;-70
2021/05/04 11:40:54;;;;;;;1.83;1.03;;;;;;;9.97;58.39;99797.50;5077389;28;20213;-70